Time;durP1;ratioP1;P1;durP2;ratioP2;P2;SDS_P1;SDS_P2;PMS_P1;PMS_P2;Temp;Humidity;BMP_temperature;BMP_pressure;BME280_temperature;BME280_humidity;BME280_pressure;Samples;Min_cycle;Max_cycle;Signal;HPM_P1;HPM_P2
2022/03/19 00:02:54;;;;;;;9.32;5.10;;;;;;;2.54;100.00;103642.69;5984203;29;20046;-91
2022/03/19 00:05:56;;;;;;;8.68;4.95;;;;;;;2.52;100.00;103640.97;5968138;29;20058;-91
2022/03/19 00:08:58;;;;;;;10.15;5.38;;;;;;;2.51;100.00;103652.03;5983108;29;20054;-91
2022/03/19 00:12:01;;;;;;;13.43;4.90;;;;;;;2.48;100.00;103650.31;5977541;29;20337;-91
2022/03/19 00:15:03;;;;;;;8.82;4.88;;;;;;;2.47;100.00;103648.63;5977342;29;20504;-91
2022/03/19 00:18:06;;;;;;;13.15;4.68;;;;;;;2.44;100.00;103646.06;5967777;29;20472;-91
2022/03/19 00:21:08;;;;;;;10.63;4.88;;;;;;;2.40;100.00;103649.44;5966965;29;20058;-91
2022/03/19 00:24:10;;;;;;;13.68;5.05;;;;;;;2.39;100.00;103649.44;5986233;29;20053;-91
2022/03/19 00:27:12;;;;;;;12.50;5.20;;;;;;;2.39;100.00;103649.44;5989508;29;20058;-91
2022/03/19 00:30:15;;;;;;;8.25;4.93;;;;;;;2.32;100.00;103644.28;5991588;29;20049;-91
2022/03/19 00:33:17;;;;;;;8.10;4.53;;;;;;;2.27;100.00;103645.94;5955249;29;20147;-91
2022/03/19 00:36:19;;;;;;;6.28;4.30;;;;;;;2.24;100.00;103651.06;5986059;29;20040;-91
2022/03/19 00:39:21;;;;;;;9.55;4.40;;;;;;;2.14;100.00;103642.47;5980012;29;20046;-91
2022/03/19 00:42:23;;;;;;;10.30;4.57;;;;;;;2.09;100.00;103640.72;5972879;29;20063;-91
2022/03/19 00:45:24;;;;;;;10.90;4.90;;;;;;;2.03;100.00;103641.53;5981650;29;20047;-91
2022/03/19 00:48:26;;;;;;;11.45;4.75;;;;;;;1.98;100.00;103639.78;5977729;29;20051;-91
2022/03/19 00:51:28;;;;;;;10.43;4.47;;;;;;;1.93;100.00;103634.63;5976738;29;20203;-91
2022/03/19 00:54:31;;;;;;;10.48;5.38;;;;;;;1.86;100.00;103625.22;5967204;29;20046;-91
2022/03/19 00:57:40;;;;;;;9.77;5.00;;;;;;;1.83;100.00;103627.75;5986875;29;20133;-91
2022/03/19 01:00:41;;;;;;;11.15;5.18;;;;;;;1.77;100.00;103622.63;5965613;29;20050;-91
2022/03/19 01:03:43;;;;;;;14.45;5.65;;;;;;;1.80;100.00;103625.19;5979570;29;20039;-91
2022/03/19 01:06:45;;;;;;;10.88;5.63;;;;;;;1.82;100.00;103632.03;5973821;29;20153;-91
2022/03/19 01:09:47;;;;;;;8.32;5.10;;;;;;;1.81;100.00;103629.44;5985222;29;20484;-91
2022/03/19 01:12:51;;;;;;;11.50;5.22;;;;;;;1.79;100.00;103626.91;5982867;29;20079;-91
2022/03/19 01:15:53;;;;;;;11.32;5.20;;;;;;;1.75;100.00;103632.81;5979490;29;20057;-91
2022/03/19 01:18:55;;;;;;;18.85;5.55;;;;;;;1.75;100.00;103637.06;5967789;29;20114;-91
2022/03/19 01:21:56;;;;;;;10.82;5.10;;;;;;;1.72;100.00;103643.00;5978253;29;20503;-91
2022/03/19 01:25:03;;;;;;;12.35;5.28;;;;;;;1.72;100.00;103643.84;5983785;29;20046;-91
2022/03/19 01:28:05;;;;;;;9.93;4.72;;;;;;;1.69;100.00;103642.94;5981287;29;20104;-91
2022/03/19 01:31:07;;;;;;;9.57;5.30;;;;;;;1.69;100.00;103640.41;5967866;29;20046;-90
2022/03/19 01:34:09;;;;;;;9.65;4.47;;;;;;;1.66;100.00;103645.50;5982055;29;20518;-90
2022/03/19 01:37:11;;;;;;;10.57;4.70;;;;;;;1.62;100.00;103647.16;5970102;29;20557;-91
2022/03/19 01:40:14;;;;;;;9.82;4.40;;;;;;;1.63;100.00;103640.38;5967662;29;20117;-91
2022/03/19 01:43:16;;;;;;;8.57;4.75;;;;;;;1.62;100.00;103646.31;5961311;29;20516;-91
2022/03/19 01:46:18;;;;;;;8.57;4.43;;;;;;;1.57;100.00;103646.28;5974962;29;20779;-91
2022/03/19 01:49:20;;;;;;;13.55;5.47;;;;;;;1.56;100.00;103643.69;5967835;29;20047;-91
2022/03/19 01:52:22;;;;;;;13.10;5.28;;;;;;;1.51;100.00;103639.41;5988069;29;20090;-91
2022/03/19 01:55:27;;;;;;;10.75;4.50;;;;;;;1.49;100.00;103625.78;5985619;29;20728;-91
2022/03/19 01:58:30;;;;;;;11.75;5.00;;;;;;;1.46;100.00;103638.50;5981619;29;20046;-91
2022/03/19 02:01:36;;;;;;;11.13;5.03;;;;;;;1.45;100.00;103624.03;5968358;29;20049;-91
2022/03/19 02:04:41;;;;;;;10.95;4.82;;;;;;;1.42;100.00;103630.81;5976742;29;20057;-91
2022/03/19 02:07:44;;;;;;;10.05;4.97;;;;;;;1.43;100.00;103628.28;5984117;29;20145;-91
2022/03/19 02:10:46;;;;;;;13.13;4.68;;;;;;;1.43;100.00;103622.31;5968517;29;20524;-91
2022/03/19 02:13:48;;;;;;;12.20;4.88;;;;;;;1.42;100.00;103618.91;5982644;29;20043;-91
2022/03/19 02:16:49;;;;;;;12.68;3.85;;;;;;;1.39;100.00;103624.00;5980184;29;20065;-91
2022/03/19 02:19:55;;;;;;;10.32;4.70;;;;;;;1.36;100.00;103616.28;5969790;29;20054;-91
2022/03/19 02:26:18;;;;;;;9.05;4.03;;;;;;;1.26;100.00;103610.22;5987272;29;20495;-90
2022/03/19 02:29:20;;;;;;;8.85;4.45;;;;;;;1.26;100.00;103607.69;5986501;29;20050;-90
2022/03/19 02:32:23;;;;;;;13.75;4.82;;;;;;;1.24;100.00;103605.97;5984153;29;20050;-90
2022/03/19 02:35:26;;;;;;;11.10;3.78;;;;;;;1.23;100.00;103614.47;5977407;29;20050;-91
2022/03/19 02:38:27;;;;;;;15.13;4.03;;;;;;;1.27;100.00;103616.22;5964634;29;20054;-90
2022/03/19 02:41:29;;;;;;;10.45;4.30;;;;;;;1.27;100.00;103626.44;5967459;29;20043;-90
2022/03/19 02:44:32;;;;;;;10.35;4.68;;;;;;;1.22;100.00;103608.50;5961058;29;20047;-91
2022/03/19 02:47:33;;;;;;;9.48;4.05;;;;;;;1.20;100.00;103612.75;5987025;29;20046;-90
2022/03/19 02:50:37;;;;;;;11.85;3.97;;;;;;;1.13;100.00;103613.50;5970012;29;20046;-91
2022/03/19 02:53:38;;;;;;;6.45;3.70;;;;;;;1.05;100.00;103610.88;5988485;29;20043;-90
2022/03/19 02:56:42;;;;;;;11.50;4.88;;;;;;;1.01;100.00;103614.22;5967309;29;20497;-91
2022/03/19 02:59:44;;;;;;;12.70;4.60;;;;;;;0.99;100.00;103621.00;5985248;29;20515;-91
2022/03/19 03:02:46;;;;;;;12.88;4.85;;;;;;;0.96;100.00;103610.78;5967737;29;20412;-90
2022/03/19 03:05:48;;;;;;;15.30;4.75;;;;;;;0.97;100.00;103611.63;5965845;29;20050;-91
2022/03/19 03:08:50;;;;;;;9.65;4.32;;;;;;;0.94;100.00;103607.34;5981162;29;20049;-90
2022/03/19 03:11:53;;;;;;;11.25;5.25;;;;;;;0.90;100.00;103607.31;5982787;29;20676;-90
2022/03/19 03:14:55;;;;;;;12.55;4.75;;;;;;;0.90;100.00;103614.97;5982099;29;20050;-90
2022/03/19 03:17:58;;;;;;;13.48;4.60;;;;;;;0.86;100.00;103617.47;5980119;29;20058;-91
2022/03/19 03:21:00;;;;;;;10.07;4.95;;;;;;;0.87;100.00;103610.69;5983957;29;20577;-91
2022/03/19 03:24:03;;;;;;;8.07;4.72;;;;;;;0.85;100.00;103622.56;5974564;29;20058;-90
2022/03/19 03:27:05;;;;;;;13.10;5.68;;;;;;;0.84;100.00;103614.03;5978667;29;20183;-90
2022/03/19 03:30:08;;;;;;;13.57;4.80;;;;;;;0.85;100.00;103617.47;5976710;29;20121;-90
2022/03/19 03:33:10;;;;;;;13.48;4.88;;;;;;;0.79;100.00;103623.31;5970161;29;20050;-91
2022/03/19 03:36:12;;;;;;;12.30;4.30;;;;;;;0.76;100.00;103613.09;5983286;29;20046;-90
2022/03/19 03:39:13;;;;;;;8.73;4.90;;;;;;;0.75;100.00;103610.56;5985723;29;20066;-90
2022/03/19 03:42:16;;;;;;;13.85;5.00;;;;;;;0.70;100.00;103612.19;5980517;29;20077;-91
2022/03/19 03:45:18;;;;;;;12.02;4.80;;;;;;;0.62;100.00;103605.31;5986684;29;20043;-90
2022/03/19 03:48:20;;;;;;;13.18;5.50;;;;;;;0.59;100.00;103604.38;5985656;29;20054;-90
2022/03/19 03:51:22;;;;;;;14.63;6.03;;;;;;;0.56;100.00;103607.75;5982395;29;20049;-90
2022/03/19 03:54:24;;;;;;;10.13;5.53;;;;;;;0.49;100.00;103611.06;5966091;29;20058;-90
2022/03/19 03:57:26;;;;;;;10.80;4.70;;;;;;;0.46;100.00;103608.47;5969129;29;20054;-90
2022/03/19 04:00:28;;;;;;;14.02;5.03;;;;;;;0.42;100.00;103597.41;5972951;29;20358;-91
2022/03/19 04:03:30;;;;;;;10.68;4.72;;;;;;;0.43;100.00;103598.25;5982200;29;20156;-90
2022/03/19 04:06:32;;;;;;;13.40;4.63;;;;;;;0.41;100.00;103603.31;5982396;29;20145;-91
2022/03/19 04:09:34;;;;;;;16.15;5.38;;;;;;;0.37;100.00;103600.72;5982767;29;20046;-90
2022/03/19 04:12:36;;;;;;;15.32;5.97;;;;;;;0.33;100.00;103602.38;5983948;29;20046;-90
2022/03/19 04:15:38;;;;;;;13.68;4.57;;;;;;;0.36;100.00;103606.66;5944108;29;20145;-91
2022/03/19 04:18:41;;;;;;;11.93;4.50;;;;;;;0.36;100.00;103604.94;5974313;29;20049;-90
2022/03/19 04:21:43;;;;;;;10.70;5.05;;;;;;;0.32;100.00;103600.63;5973962;29;20043;-90
2022/03/19 04:24:44;;;;;;;12.63;4.70;;;;;;;0.34;100.00;103610.88;5982604;29;20239;-91
2022/03/19 04:27:48;;;;;;;10.38;4.85;;;;;;;0.34;100.00;103613.41;5981273;29;20062;-91
2022/03/19 04:30:50;;;;;;;18.75;5.10;;;;;;;0.30;100.00;103609.97;5979900;29;20058;-91
2022/03/19 04:33:52;;;;;;;11.98;5.00;;;;;;;0.29;100.00;103612.50;5981965;29;20415;-91
2022/03/19 04:36:55;;;;;;;14.35;5.75;;;;;;;0.25;100.00;103615.81;5980636;29;20527;-91
2022/03/19 04:39:57;;;;;;;11.07;4.68;;;;;;;0.23;100.00;103607.31;5980245;29;20436;-90
2022/03/19 04:42:59;;;;;;;11.70;5.00;;;;;;;0.15;100.00;103607.19;5980817;29;20070;-90
2022/03/19 04:46:01;;;;;;;10.85;4.93;;;;;;;0.11;100.00;103608.00;5979933;29;20112;-90
2022/03/19 04:49:04;;;;;;;10.57;5.13;;;;;;;0.08;100.00;103608.81;5979898;29;20035;-90
2022/03/19 04:52:06;;;;;;;14.63;5.85;;;;;;;0.07;100.00;103604.53;5980066;29;20110;-91
2022/03/19 04:55:09;;;;;;;13.30;5.57;;;;;;;0.08;100.00;103598.63;5981457;29;20050;-90
2022/03/19 04:58:11;;;;;;;11.80;5.07;;;;;;;0.08;100.00;103600.31;5979653;29;20049;-91
2022/03/19 05:01:13;;;;;;;15.27;5.35;;;;;;;0.06;100.00;103607.06;5983293;29;20068;-90
2022/03/19 05:04:15;;;;;;;14.48;4.82;;;;;;;0.01;100.00;103604.47;5980701;29;20752;-91
2022/03/19 05:07:19;;;;;;;9.65;4.88;;;;;;;-0.01;100.00;103612.06;5979370;29;20081;-90
2022/03/19 05:13:48;;;;;;;;;;;;;;;-0.03;100.00;103610.31;5985091;29;20064;-90
2022/03/19 05:16:50;;;;;;;13.48;4.90;;;;;;;-0.06;100.00;103611.13;5984228;29;19928;-91
2022/03/19 05:19:52;;;;;;;8.73;4.32;;;;;;;-0.04;100.00;103611.19;5982932;29;20057;-90
2022/03/19 05:22:54;;;;;;;10.90;5.07;;;;;;;-0.10;100.00;103611.06;5976695;29;20346;-90
2022/03/19 05:25:58;;;;;;;13.48;4.45;;;;;;;-0.12;100.00;103613.59;5978332;29;20066;-90
2022/03/19 05:28:59;;;;;;;12.18;5.00;;;;;;;-0.11;100.00;103610.22;5979161;29;20651;-90
2022/03/19 05:32:08;;;;;;;11.68;5.18;;;;;;;-0.09;100.00;103611.09;5978475;29;20046;-90
2022/03/19 05:35:10;;;;;;;15.48;5.75;;;;;;;-0.09;100.00;103611.09;5969478;29;20124;-91
2022/03/19 05:38:13;;;;;;;14.15;5.50;;;;;;;-0.09;100.00;103602.63;5970721;29;20050;-91
2022/03/19 05:41:16;;;;;;;13.05;5.25;;;;;;;-0.06;100.00;103598.41;5973823;29;20050;-90
2022/03/19 05:44:18;;;;;;;11.13;5.13;;;;;;;-0.08;100.00;103601.75;5971997;29;20258;-91
2022/03/19 05:47:20;;;;;;;10.68;4.88;;;;;;;-0.09;100.00;103613.66;5976932;29;20054;-90
2022/03/19 05:50:22;;;;;;;13.27;5.32;;;;;;;-0.07;100.00;103606.91;5965709;29;20065;-90
2022/03/19 05:53:24;;;;;;;14.18;4.93;;;;;;;-0.05;100.00;103612.88;5974729;29;20062;-90
2022/03/19 05:56:26;;;;;;;14.35;5.05;;;;;;;-0.05;100.00;103609.44;5979756;29;20054;-90
2022/03/19 05:59:29;;;;;;;12.60;5.35;;;;;;;-0.01;100.00;103606.97;5982266;29;20042;-90
2022/03/19 06:02:31;;;;;;;15.90;5.30;;;;;;;0.02;100.00;103611.25;5959719;29;20231;-90
2022/03/19 06:05:32;;;;;;;12.90;5.88;;;;;;;0.06;100.00;103597.75;5981131;29;20054;-90
2022/03/19 06:08:34;;;;;;;11.23;4.63;;;;;;;0.09;100.00;103604.56;5982182;29;20647;-90
2022/03/19 06:11:36;;;;;;;13.05;4.90;;;;;;;0.05;100.00;103605.34;5977592;29;20076;-90
2022/03/19 06:14:38;;;;;;;13.00;5.00;;;;;;;0.02;100.00;103597.66;5985407;29;20068;-90
2022/03/19 06:17:40;;;;;;;16.48;5.35;;;;;;;-0.04;100.00;103604.38;5984598;29;20099;-90
2022/03/19 06:20:41;;;;;;;12.98;5.05;;;;;;;-0.02;100.00;103607.81;5984007;29;20058;-90
2022/03/19 06:23:46;;;;;;;16.67;6.45;;;;;;;0.01;100.00;103603.59;5980758;29;20211;-90
2022/03/19 06:26:50;;;;;;;15.05;5.65;;;;;;;0.06;100.00;103597.75;5964715;29;20412;-90
2022/03/19 06:29:52;;;;;;;13.38;5.50;;;;;;;0.11;100.00;103600.34;5974387;29;20496;-90
2022/03/19 06:32:55;;;;;;;11.80;5.45;;;;;;;0.16;100.00;103597.03;5974069;29;20469;-90
2022/03/19 06:39:18;;;;;;;14.38;5.47;;;;;;;0.17;100.00;103591.13;5977495;29;20043;-90
2022/03/19 06:42:20;;;;;;;13.95;5.13;;;;;;;0.21;100.00;103587.75;5973525;29;20096;-90
2022/03/19 06:45:22;;;;;;;10.32;5.60;;;;;;;0.25;100.00;103590.34;5973227;29;20042;-90
2022/03/19 06:48:25;;;;;;;12.68;6.25;;;;;;;0.33;100.00;103584.53;5966914;29;20525;-90
2022/03/19 06:51:27;;;;;;;14.63;6.13;;;;;;;0.39;100.00;103599.88;5982672;29;20046;-90
2022/03/19 06:54:29;;;;;;;11.40;5.50;;;;;;;0.46;100.00;103589.78;5981840;29;20569;-90
2022/03/19 06:57:31;;;;;;;14.02;6.13;;;;;;;0.55;100.00;103587.38;5981944;29;20488;-90
2022/03/19 07:00:32;;;;;;;14.57;6.00;;;;;;;0.59;100.00;103586.53;5975761;29;20043;-90
2022/03/19 07:03:35;;;;;;;13.63;6.30;;;;;;;0.66;100.00;103588.34;5982005;29;20054;-90
2022/03/19 07:06:37;;;;;;;14.65;6.13;;;;;;;0.69;100.00;103579.88;5959988;29;20501;-90
2022/03/19 07:09:59;;;;;;;19.13;6.43;;;;;;;0.74;100.00;103573.97;5979631;29;20046;-90
2022/03/19 07:13:01;;;;;;;14.85;6.30;;;;;;;0.79;100.00;103574.03;5958338;29;20484;-90
2022/03/19 07:16:05;;;;;;;16.88;6.90;;;;;;;0.86;100.00;103578.38;5981776;29;20043;-90
2022/03/19 07:19:08;;;;;;;14.20;6.32;;;;;;;0.97;100.00;103581.03;5983530;29;20995;-90
2022/03/19 07:22:10;;;;;;;14.75;7.72;;;;;;;0.99;100.00;103585.28;5968484;29;20038;-90
2022/03/19 07:25:12;;;;;;;16.73;6.82;;;;;;;1.06;100.00;103576.03;5977450;29;20067;-91
2022/03/19 07:28:22;;;;;;;18.42;6.63;;;;;;;1.10;100.00;103577.78;5978394;29;20505;-90
2022/03/19 07:31:24;;;;;;;17.95;6.80;;;;;;;1.12;100.00;103585.44;5976053;29;20039;-90
2022/03/19 07:34:26;;;;;;;17.83;7.10;;;;;;;1.19;100.00;103584.66;5981515;29;20046;-91
2022/03/19 07:37:28;;;;;;;20.30;7.93;;;;;;;1.19;100.00;103587.19;5972856;29;20088;-90
2022/03/19 07:43:53;;;;;;;15.68;6.75;;;;;;;1.38;100.00;103589.09;5979695;29;20046;-90
2022/03/19 07:46:56;;;;;;;19.05;6.30;;;;;;;1.42;100.00;103582.34;5982342;29;20416;-91
2022/03/19 07:49:57;;;;;;;18.77;6.53;;;;;;;1.47;100.00;103580.66;5984622;29;20038;-90
2022/03/19 07:53:00;;;;;;;15.75;6.90;;;;;;;1.56;100.00;103577.31;5985188;29;20046;-90
2022/03/19 07:56:02;;;;;;;17.55;7.05;;;;;;;1.67;100.00;103578.28;5978460;29;20050;-91
2022/03/19 07:59:03;;;;;;;21.02;7.22;;;;;;;1.75;100.00;103574.06;5982123;29;20058;-91
2022/03/19 08:02:06;;;;;;;14.40;6.10;;;;;;;1.91;100.00;103568.25;5981132;29;20065;-90
2022/03/19 08:05:08;;;;;;;10.48;5.25;;;;;;;2.04;100.00;103566.59;5980270;29;20057;-91
2022/03/19 08:08:11;;;;;;;13.27;4.30;;;;;;;2.09;100.00;103570.03;5981443;29;20034;-91
2022/03/19 08:11:14;;;;;;;8.35;4.05;;;;;;;2.27;100.00;103559.06;5981177;29;20503;-91
2022/03/19 08:14:17;;;;;;;13.60;4.63;;;;;;;2.43;100.00;103559.13;5961964;29;20077;-91
2022/03/19 08:17:19;;;;;;;9.43;3.15;;;;;;;2.57;100.00;103565.16;5980655;29;20710;-91
2022/03/19 08:20:22;;;;;;;11.75;3.05;;;;;;;2.75;100.00;103567.75;5980550;29;20050;-90
2022/03/19 08:23:23;;;;;;;10.65;2.92;;;;;;;2.90;100.00;103558.41;5980581;29;20043;-90
2022/03/19 08:26:26;;;;;;;8.73;3.15;;;;;;;2.98;100.00;103554.16;5956672;29;20095;-90
2022/03/19 08:29:27;;;;;;;7.03;3.10;;;;;;;3.01;100.00;103555.03;5948032;29;20133;-90
2022/03/19 08:32:30;;;;;;;10.32;3.30;;;;;;;3.16;100.00;103549.09;5963724;29;20390;-90
2022/03/19 08:35:32;;;;;;;8.07;3.08;;;;;;;3.18;100.00;103555.06;5978244;29;20050;-91
2022/03/19 08:41:54;;;;;;;9.25;2.95;;;;;;;3.55;100.00;103549.06;5971470;29;20067;-90
2022/03/19 08:44:57;;;;;;;11.00;3.15;;;;;;;3.54;100.00;103558.47;5981425;29;20027;-91
2022/03/19 08:47:59;;;;;;;5.38;2.35;;;;;;;3.79;100.00;103556.72;6026219;23;20058;-91
2022/03/19 08:54:23;;;;;;;14.52;3.17;;;;;;;3.89;100.00;103552.44;6008504;29;20069;-90
2022/03/19 08:57:25;;;;;;;9.35;3.35;;;;;;;3.85;100.00;103553.28;6014617;29;20049;-91
2022/03/19 09:00:40;;;;;;;8.80;2.88;;;;;;;4.08;100.00;103551.56;5948561;29;20051;-90
2022/03/19 09:03:42;;;;;;;9.95;3.15;;;;;;;4.14;100.00;103542.13;5936811;29;20617;-90
2022/03/19 09:06:45;;;;;;;10.57;3.53;;;;;;;4.09;100.00;103549.84;5928938;29;20054;-89
2022/03/19 09:09:52;;;;;;;11.85;3.53;;;;;;;4.21;100.00;103546.38;5923156;29;20115;-90
2022/03/19 09:13:07;;;;;;;;;;;;;;;4.30;100.00;103551.50;5910669;29;20246;-90
2022/03/19 09:16:09;;;;;;;8.48;2.85;;;;;;;4.43;100.00;103550.56;5926382;29;20312;-90
2022/03/19 09:19:11;;;;;;;14.40;3.10;;;;;;;4.45;100.00;103542.88;5926213;29;20055;-90
2022/03/19 09:22:13;;;;;;;7.50;2.42;;;;;;;4.46;100.00;103545.41;5924486;29;20059;-90
2022/03/19 09:25:15;;;;;;;7.55;2.80;;;;;;;4.53;100.00;103530.84;5923394;29;20051;-90
2022/03/19 09:28:17;;;;;;;10.20;2.55;;;;;;;4.70;100.00;103534.19;5926836;29;20197;-90
2022/03/19 09:31:20;;;;;;;9.40;3.03;;;;;;;4.88;100.00;103522.09;5926208;29;20055;-91
2022/03/19 09:34:22;;;;;;;7.63;2.67;;;;;;;4.93;100.00;103521.19;5924087;29;20043;-91
2022/03/19 09:37:24;;;;;;;8.82;2.50;;;;;;;5.03;100.00;103516.00;5930088;29;20628;-91
2022/03/19 09:40:27;;;;;;;6.85;2.88;;;;;;;5.11;100.00;103514.22;5932775;29;20096;-91
2022/03/19 09:43:30;;;;;;;12.32;2.75;;;;;;;5.26;100.00;103513.25;5933659;29;20581;-92
2022/03/19 09:46:31;;;;;;;8.32;2.75;;;;;;;5.41;100.00;103505.41;5920625;29;20051;-91
2022/03/19 09:49:34;;;;;;;9.07;2.78;;;;;;;5.45;100.00;103513.94;5931727;29;20050;-91
2022/03/19 09:52:37;;;;;;;12.23;3.15;;;;;;;5.60;100.00;103506.09;5935677;29;20043;-91
2022/03/19 09:55:41;;;;;;;6.18;2.20;;;;;;;5.74;100.00;103509.38;5942189;29;20063;-91
2022/03/19 09:58:43;;;;;;;10.18;3.15;;;;;;;5.88;100.00;103501.50;5881466;30;1210975;-91
2022/03/19 10:01:47;;;;;;;7.93;2.17;;;;;;;6.08;100.00;103497.88;5924153;29;20055;-91
2022/03/19 10:08:35;;;;;;;8.57;2.15;;;;;;;6.23;100.00;103489.97;5921789;29;20063;-92
2022/03/19 10:08:43;;;;;;;7.40;2.03;;;;;;;6.44;100.00;103488.84;5943132;29;20040;-91
2022/03/19 10:11:49;;;;;;;6.70;2.25;;;;;;;6.39;100.00;103480.34;5928987;29;20054;-91
2022/03/19 10:14:53;;;;;;;5.32;1.75;;;;;;;6.44;100.00;103483.72;5919945;29;20122;-91
2022/03/19 10:18:01;;;;;;;5.00;1.85;;;;;;;6.48;100.00;103480.19;5927334;29;20525;-91
2022/03/19 10:21:15;;;;;;;7.15;2.28;;;;;;;6.56;100.00;103475.81;5913876;30;20047;-91
2022/03/19 10:24:26;;;;;;;9.40;2.10;;;;;;;6.79;100.00;103469.47;5934304;30;20824;-91
2022/03/19 10:27:37;;;;;;;6.75;1.98;;;;;;;6.77;100.00;103466.06;5922090;29;20143;-91
2022/03/19 10:30:46;;;;;;;4.97;1.98;;;;;;;6.90;100.00;103464.97;5940192;29;20044;-92
2022/03/19 10:33:49;;;;;;;5.85;1.73;;;;;;;6.92;100.00;103447.78;5935427;29;20136;-92
2022/03/19 10:36:52;;;;;;;9.43;1.90;;;;;;;7.01;100.00;103450.22;5947572;29;20051;-92
2022/03/19 10:40:00;;;;;;;5.57;1.90;;;;;;;7.20;100.00;103444.75;5942922;29;20054;-92
2022/03/19 10:43:07;;;;;;;2.42;1.92;;;;;;;7.30;99.61;103439.41;5933035;30;20057;-92
2022/03/19 10:46:10;;;;;;;10.23;2.20;;;;;;;7.39;100.00;103427.22;5930935;30;20066;-92
2022/03/19 10:49:29;;;;;;;8.27;2.13;;;;;;;7.57;97.00;103428.59;6003455;24;20037;-92
2022/03/19 10:52:36;;;;;;;5.68;1.73;;;;;;;7.67;95.84;103422.38;6255485;23;20021;-92
2022/03/19 10:55:39;;;;;;;5.97;1.70;;;;;;;7.74;97.71;103426.53;6140159;23;20088;31
2022/03/19 10:58:57;;;;;;;5.22;1.40;;;;;;;7.76;95.30;103423.03;6042036;24;20042;-93
2022/03/19 11:02:01;;;;;;;4.88;1.80;;;;;;;7.90;94.70;103415.03;6055773;23;20034;-93
2022/03/19 11:05:07;;;;;;;6.38;2.05;;;;;;;7.91;95.02;103416.72;5973454;29;20053;-93
2022/03/19 11:12:09;;;;;;;4.13;1.60;;;;;;;8.37;88.96;103401.94;6251043;23;20054;31
2022/03/19 11:15:13;;;;;;;7.03;1.63;;;;;;;8.35;90.70;103399.41;5993446;29;20030;-93
2022/03/19 11:18:20;;;;;;;6.80;2.00;;;;;;;8.45;88.71;103384.59;6009263;29;20042;-92
2022/03/19 11:21:25;;;;;;;5.50;1.75;;;;;;;8.56;86.12;103381.75;6017002;29;20042;-92
2022/03/19 11:24:32;;;;;;;6.90;1.90;;;;;;;8.74;87.28;103378.69;6031796;29;20057;-92
2022/03/19 11:31:29;;;;;;;7.65;1.52;;;;;;;9.44;77.40;103370.81;6194982;23;20077;-93
2022/03/19 11:34:48;;;;;;;4.88;1.20;;;;;;;9.70;75.02;103359.69;5986635;29;20815;-93
2022/03/19 11:38:00;;;;;;;5.93;1.67;;;;;;;9.87;71.25;103360.94;5968971;29;20086;-93
2022/03/19 11:41:17;;;;;;;5.15;1.15;;;;;;;9.84;67.62;103345.50;6008793;29;20050;-94
2022/03/19 11:44:24;;;;;;;7.18;1.50;;;;;;;9.82;69.82;103336.94;5981081;29;20077;-93
2022/03/19 11:47:33;;;;;;;5.50;1.40;;;;;;;9.88;65.44;103341.91;6130506;24;20450;-92
2022/03/19 11:50:37;;;;;;;4.28;1.80;;;;;;;10.04;68.08;103326.78;6008488;29;20139;-92
2022/03/19 11:53:53;;;;;;;4.60;1.15;;;;;;;10.22;66.27;103314.97;5985241;29;20057;-92
2022/03/19 11:56:55;;;;;;;4.05;1.35;;;;;;;10.22;63.33;103304.63;5990551;29;20050;-92
2022/03/19 12:00:00;;;;;;;5.30;1.63;;;;;;;10.28;63.75;103286.31;5984639;29;20121;-92
2022/03/19 12:03:15;;;;;;;3.55;1.20;;;;;;;10.30;63.02;103300.06;5988807;29;20062;-92
2022/03/19 12:06:39;;;;;;;5.18;1.17;;;;;;;10.12;60.51;103302.31;6366770;23;20042;-92
2022/03/19 12:09:48;;;;;;;4.40;1.30;;;;;;;10.03;62.39;103299.19;6285462;23;20034;-94
2022/03/19 12:16:12;;;;;;;4.90;1.20;;;;;;;9.86;62.45;103279.88;5716639;23;20103;-93
2022/03/19 12:19:47;;;;;;;4.72;1.42;;;;;;;10.20;60.26;103267.59;5975544;29;20058;-93
2022/03/19 12:22:50;;;;;;;4.18;1.30;;;;;;;10.55;59.63;103267.25;5979943;29;20551;-93
2022/03/19 12:26:01;;;;;;;5.32;1.50;;;;;;;10.96;60.45;103262.34;5969344;29;20121;-92
2022/03/19 12:29:05;;;;;;;3.97;1.20;;;;;;;11.24;58.48;103258.72;5959392;29;20057;-93
2022/03/19 12:32:08;;;;;;;3.85;1.30;;;;;;;11.55;55.62;103262.72;5983044;29;20078;-93
2022/03/19 12:35:10;;;;;;;6.70;1.35;;;;;;;11.46;52.91;103256.16;5989811;29;20054;-93
2022/03/19 12:38:32;;;;;;;5.53;1.98;;;;;;;10.96;54.68;103239.03;6279557;23;20077;-93
2022/03/19 12:41:40;;;;;;;6.28;1.50;;;;;;;10.72;57.67;103251.13;5972155;29;20038;-93
2022/03/19 12:44:58;;;;;;;2.97;1.40;;;;;;;10.51;60.61;103249.31;5978548;29;20059;-94
2022/03/19 12:48:00;;;;;;;4.40;1.67;;;;;;;10.43;58.22;103238.34;5956941;29;20051;-93
2022/03/19 12:51:02;;;;;;;2.38;1.40;;;;;;;10.40;59.74;103244.47;5950053;29;20050;-93
2022/03/19 12:54:32;;;;;;;3.60;1.55;;;;;;;10.64;58.64;103244.53;5959994;29;20035;-92
2022/03/19 12:57:35;;;;;;;2.22;1.23;;;;;;;11.05;59.48;103229.22;5945481;29;20051;-92
2022/03/19 13:00:37;;;;;;;4.88;1.67;;;;;;;10.88;57.83;103233.28;5945207;29;20050;-93
2022/03/19 13:03:41;;;;;;;3.35;1.50;;;;;;;10.47;56.75;103222.66;5962612;29;20631;-94
2022/03/19 13:06:44;;;;;;;3.95;1.33;;;;;;;10.47;57.52;103229.59;5952813;29;20066;-92
2022/03/19 13:09:52;;;;;;;3.05;1.50;;;;;;;11.29;55.44;103217.91;5966307;29;20103;-93
2022/03/19 13:13:10;;;;;;;5.93;1.70;;;;;;;11.55;54.88;103219.50;5974554;29;20497;-94
2022/03/19 13:16:12;;;;;;;4.63;1.77;;;;;;;11.35;53.70;103204.72;5957236;29;20633;-93
2022/03/19 13:19:24;;;;;;;2.80;1.10;;;;;;;11.33;53.99;103198.75;5960996;29;20301;-94
2022/03/19 13:22:27;;;;;;;4.93;1.27;;;;;;;10.74;54.58;103188.91;5969216;29;20048;-93
2022/03/19 13:25:30;;;;;;;3.97;1.27;;;;;;;10.22;58.99;103180.38;5973496;29;20054;-92
2022/03/19 13:28:33;;;;;;;2.78;1.10;;;;;;;9.83;58.50;103175.63;5948880;29;20051;-92
2022/03/19 13:31:37;;;;;;;2.83;1.58;;;;;;;10.27;60.27;103168.13;5958426;29;20375;-93
2022/03/19 13:34:46;;;;;;;3.30;1.50;;;;;;;11.10;57.18;103165.06;5977129;29;20059;-94
2022/03/19 13:37:48;;;;;;;6.40;1.63;;;;;;;11.98;55.29;103147.69;5953439;29;20075;-92
2022/03/19 13:40:56;;;;;;;5.03;1.63;;;;;;;12.23;52.16;103139.66;5962793;29;20055;-93
2022/03/19 13:44:02;;;;;;;3.08;1.05;;;;;;;11.62;52.96;103131.88;5937713;29;20050;-93
2022/03/19 13:47:20;;;;;;;4.40;1.10;;;;;;;10.86;54.74;103135.78;5953213;29;20102;-93
2022/03/19 13:50:22;;;;;;;3.20;1.10;;;;;;;10.33;56.26;103131.66;5958558;29;20058;-93
2022/03/19 13:53:40;;;;;;;1.98;0.90;;;;;;;10.56;54.88;103129.09;5945333;29;20061;-93
2022/03/19 13:56:56;;;;;;;2.67;1.10;;;;;;;10.61;55.63;103118.56;5955449;29;20059;-92
2022/03/19 14:00:22;;;;;;;2.50;1.20;;;;;;;10.88;54.67;103121.00;5949428;29;20051;-93
2022/03/19 14:03:24;;;;;;;4.07;1.50;;;;;;;11.16;52.80;103107.81;5946458;29;20047;-92
2022/03/19 14:06:37;;;;;;;2.67;1.05;;;;;;;11.59;51.61;103100.88;5943576;29;20043;-93
2022/03/19 14:09:44;;;;;;;3.05;1.23;;;;;;;11.89;51.69;103098.75;5955864;29;20163;-93
2022/03/19 14:12:46;;;;;;;2.13;0.90;;;;;;;12.15;49.78;103086.38;5948016;29;20547;-92
2022/03/19 14:15:51;;;;;;;4.28;1.20;;;;;;;12.48;50.50;103069.28;5952848;29;20845;-93
2022/03/19 14:19:02;;;;;;;5.30;2.42;;;;;;;12.96;47.73;103074.81;5947362;29;20723;-94
2022/03/19 14:22:30;;;;;;;2.72;0.95;;;;;;;12.50;46.85;103074.41;5967895;29;20047;-94
2022/03/19 14:25:37;;;;;;;4.50;0.90;;;;;;;11.64;48.46;103078.16;5944821;30;20827;-93
2022/03/19 14:28:48;;;;;;;2.63;1.00;;;;;;;10.98;49.59;103071.34;5968621;29;20048;-93
2022/03/19 14:31:50;;;;;;;5.18;1.70;;;;;;;10.33;51.25;103074.72;5943371;29;20036;-93
2022/03/19 14:34:52;;;;;;;3.50;1.10;;;;;;;10.21;55.72;103068.22;5935279;29;20263;-93
2022/03/19 14:37:54;;;;;;;3.42;0.93;;;;;;;10.62;53.98;103062.44;5940043;29;20345;-92
2022/03/19 14:41:01;;;;;;;4.68;1.17;;;;;;;10.99;53.51;103054.06;5935466;29;20066;-92
2022/03/19 14:44:05;;;;;;;3.70;1.00;;;;;;;11.41;53.87;103053.22;5939908;29;20502;-93
2022/03/19 14:47:06;;;;;;;1.35;0.82;;;;;;;12.21;50.48;103054.94;5937940;30;20028;-93